Disclaimer

Please do not use the information listed here in-flight or in-navigation, as they are not provided to us by the airports but are provided by volunteers, so they might be outdated.

Search


Regions


Airport information page

Radio informations:
Brisbane Center - 125.0 MHz
Common traffic adv. frequency (CTAF) - 127.8 MHz

Airport informations:
Latitude: 12° 16' 10.00" S
Longitude: 136° 49' 06.00" E
Elevation: 205 feet - 62 meters
Operating hours: N/A
Operating agency: Civil government, landing fees and diplomatic clearance may be required
Timezone: UTC+9:30
Fuel: Jet A1+, Jet A1 with icing inhibitor.

100/130 MIL Spec, low lead, aviation gasoline (BLUE)

Runway information:
13/31 - 7244 x 148 feet< - >2208 x 45 meters

Recent METARs:
YPGV 142100Z AUTO 05004KT 9999 // NCD 27/23 Q1012
YPGV 142130Z AUTO 09003KT 9999 // NCD 28/23 Q1012 RF00.0/000.0
YPGV 142200Z AUTO 08007KT 9999 // NCD 29/23 Q1013

Airport on the map: